Sd Seahorse — UAJB — position and weather

sailwx.info

Track history (hours):
 
Tides and Currents Weather Stations Pressure Air Temp Water Temp Dewpoint Dewpoint Depression Visibility Wind Speed Wind Dir Waves Ship Positions

Sd Seahorse

Last reported at 2017-Oct-03 17:31 UTC. Time now 2017-Oct-22 15:30 UTC.
Position N 44°37' E 037°29'.
Warning: this ship's position is 18 days out of date.

; draft 5.5 m.

Type: Tug. MMSI: 273380330.

Date/timePositionNaut miles runAvg speedWind from/ knotsBaromVisibWave heightAir tempDewpointWater temp
2017-Oct-03 17:31N 44°37' E 037°29'3 9.1
2017-Oct-03 17:11N 44°35' E 037°33'2 9.2
2017-Oct-03 17:01N 44°35' E 037°35'4 8.9
2017-Oct-03 16:31N 44°36' E 037°41'4 8.3
2017-Oct-03 16:01N 44°38' E 037°46'3 6.9
2017-Oct-03 15:31N 44°41' E 037°49'4 7.4
2017-Oct-03 15:01N 44°44' E 037°47'0 0.0
2017-Oct-03 14:01N 44°44' E 037°47'0 0.0
2017-Oct-03 13:31N 44°44' E 037°47'0 0.0
2017-Oct-03 13:01N 44°44' E 037°47'0 0.0
2017-Oct-03 12:31N 44°44' E 037°47'0 0.0
2017-Oct-03 12:01N 44°44' E 037°47'0 0.0
2017-Oct-03 11:31N 44°44' E 037°47'0 0.0
2017-Oct-03 11:01N 44°44' E 037°47'0 0.0
2017-Oct-03 10:31N 44°44' E 037°47'0 0.0
2017-Oct-03 10:01N 44°44' E 037°47'0 0.0
2017-Oct-03 09:31N 44°44' E 037°47'0 0.0
2017-Oct-03 09:01N 44°44' E 037°47'0 0.0
2017-Oct-03 08:30N 44°44' E 037°47'0 0.0
2017-Oct-03 08:01N 44°44' E 037°47'0 0.0
2017-Oct-03 07:31N 44°44' E 037°47'0 0.0
2017-Oct-03 07:01N 44°44' E 037°47'0 0.0
2017-Oct-03 06:30N 44°44' E 037°47'0 0.0
2017-Oct-03 06:01N 44°44' E 037°47'0 0.0
2017-Oct-03 05:31N 44°44' E 037°47'0 0.0
2017-Oct-03 05:01N 44°44' E 037°47'0 0.0
2017-Oct-03 04:31N 44°44' E 037°47'0 0.0
2017-Oct-03 04:01N 44°44' E 037°47'0 0.0
2017-Oct-03 03:31N 44°44' E 037°47'0 0.0
2017-Oct-03 03:00N 44°44' E 037°47'0 0.0
2017-Oct-03 02:31N 44°44' E 037°47'0 0.0
2017-Oct-03 02:01N 44°44' E 037°47'0 0.0
2017-Oct-03 01:31N 44°44' E 037°47'0 0.0
2017-Oct-03 01:01N 44°44' E 037°47'0 0.0
2017-Oct-03 00:31N 44°44' E 037°47'0 0.0
2017-Oct-03 00:00N 44°44' E 037°47'0 0.0
2017-Oct-02 23:31N 44°44' E 037°47'0 0.0
2017-Oct-02 23:01N 44°44' E 037°47'0 0.0
2017-Oct-02 22:31N 44°44' E 037°47'0 0.0
2017-Oct-02 22:01N 44°44' E 037°47'0 0.0
2017-Oct-02 21:31N 44°44' E 037°47'0 0.0
2017-Oct-02 21:00N 44°44' E 037°47'0 0.0
2017-Oct-02 20:31N 44°44' E 037°47'0 0.0
2017-Oct-02 20:01N 44°44' E 037°47'0 0.0
2017-Oct-02 19:31N 44°44' E 037°47'0 0.0
2017-Oct-02 19:01N 44°44' E 037°47'0 0.0
2017-Oct-02 18:31N 44°44' E 037°47'0 0.0
2017-Oct-02 18:01N 44°44' E 037°47'0 0.0
2017-Oct-02 17:31N 44°44' E 037°47'0 0.0
2017-Oct-02 17:01N 44°44' E 037°47'0 0.0
2017-Oct-02 16:31N 44°44' E 037°47'0 0.0
2017-Oct-02 16:01N 44°44' E 037°47'0 0.0
2017-Oct-02 15:31N 44°44' E 037°47'0 0.0
2017-Oct-02 15:01N 44°44' E 037°47'0 0.0
2017-Oct-02 14:31N 44°44' E 037°47'0 0.0
2017-Oct-02 14:01N 44°44' E 037°47'0 0.0
2017-Oct-02 13:30N 44°44' E 037°47'0 0.0
2017-Oct-02 13:00N 44°44' E 037°47'0 0.0
2017-Oct-02 12:31N 44°44' E 037°47'0 0.0
2017-Oct-02 12:01N 44°44' E 037°47'0 0.0
2017-Oct-02 11:30N 44°44' E 037°47'0 0.0
2017-Oct-02 11:01N 44°44' E 037°47'0 0.0
2017-Oct-02 10:31N 44°44' E 037°47'0 0.0
2017-Oct-02 10:01N 44°44' E 037°47'0 0.0
2017-Oct-02 09:31N 44°44' E 037°47'0 0.0
2017-Oct-02 09:01N 44°44' E 037°47'0 0.0
2017-Oct-02 08:30N 44°44' E 037°47'0 0.0
2017-Oct-02 08:01N 44°44' E 037°47'0 0.0
2017-Oct-02 07:30N 44°44' E 037°47'0 0.0
2017-Oct-02 07:01N 44°44' E 037°47'0 0.0
2017-Oct-02 06:31N 44°44' E 037°47'0 0.0
2017-Oct-02 06:00N 44°44' E 037°47'0 0.0
2017-Oct-02 05:31N 44°44' E 037°47'0 0.0
2017-Oct-02 05:00N 44°44' E 037°47'0 0.0
2017-Oct-02 04:31N 44°44' E 037°47'0 0.0
2017-Oct-02 04:01N 44°44' E 037°47'0 0.0
2017-Oct-02 03:31N 44°44' E 037°47'0 0.0
2017-Oct-02 03:01N 44°44' E 037°47'0 0.0
2017-Oct-02 02:30N 44°44' E 037°47'0 0.0
2017-Oct-02 02:01N 44°44' E 037°47'0 0.0
2017-Oct-02 01:31N 44°44' E 037°47'0 0.0
2017-Oct-02 01:01N 44°44' E 037°47'0 0.0
2017-Oct-02 00:31N 44°44' E 037°47'0 0.0
2017-Oct-02 00:01N 44°44' E 037°47'0 0.0
2017-Oct-01 23:31N 44°44' E 037°47'0 0.0
2017-Oct-01 23:01N 44°44' E 037°47'0 0.0
2017-Oct-01 22:30N 44°44' E 037°47'0 0.0
2017-Oct-01 22:01N 44°44' E 037°47'0 0.0
2017-Oct-01 21:31N 44°44' E 037°47'0 0.0
2017-Oct-01 21:01N 44°44' E 037°47'0 0.0
2017-Oct-01 20:31N 44°44' E 037°47'0 0.0
2017-Oct-01 20:00N 44°44' E 037°47'1 1.6
2017-Oct-01 19:31N 44°44' E 037°48'0 0.0
2017-Oct-01 19:01N 44°44' E 037°48'1 1.7
2017-Oct-01 18:31N 44°43' E 037°48'1 2.4
2017-Oct-01 18:01N 44°44' E 037°47'0 0.0
2017-Oct-01 17:31N 44°44' E 037°47'0 0.0
2017-Oct-01 17:01N 44°44' E 037°47'0 0.0
2017-Oct-01 16:31N 44°44' E 037°47'0 0.0
2017-Oct-01 16:01N 44°44' E 037°47'1 1.9
2017-Oct-01 15:31N 44°43' E 037°48'4 8.8
2017-Oct-01 15:01N 44°39' E 037°51'5 9.2
2017-Oct-01 14:31N 44°36' E 037°56'4 8.8
2017-Oct-01 14:01N 44°32' E 037°58'4 7.8
2017-Oct-01 13:30N 44°36' E 038°01'0 0.0
2017-Oct-01 13:00N 44°36' E 038°01'2316.9
2017-Oct-01 11:37N 44°19' E 038°24'210.0
2017-Oct-01 11:24N 44°19' E 038°27'410.1
2017-Oct-01 11:00N 44°17' E 038°32'510.1
2017-Oct-01 10:30N 44°14' E 038°38'510.0
2017-Oct-01 10:00N 44°11' E 038°43'5 9.9
2017-Oct-01 09:30N 44°09' E 038°49'5 9.7
2017-Oct-01 09:00N 44°07' E 038°55'5 9.5
2017-Oct-01 08:30N 44°05' E 039°02'1 2.4
2017-Oct-01 08:00N 44°06' E 039°03'0 0.0
2017-Oct-01 07:30N 44°06' E 039°03'0 0.0
2017-Oct-01 07:00N 44°06' E 039°03'0 0.0
2017-Oct-01 06:30N 44°06' E 039°03'0 0.0
2017-Oct-01 06:00N 44°06' E 039°03'0 0.0
2017-Oct-01 05:30N 44°06' E 039°03'0 0.0
2017-Oct-01 05:00N 44°06' E 039°03'0 0.0
2017-Oct-01 04:30N 44°06' E 039°03'0 0.0
2017-Oct-01 04:00N 44°06' E 039°03'0 0.0
2017-Oct-01 03:30N 44°06' E 039°03'0 0.0
2017-Oct-01 03:00N 44°06' E 039°03'0 0.0
2017-Sep-30 02:00N 44°06' E 039°03'0 0.0
2017-Sep-30 01:30N 44°06' E 039°03'0 0.0
2017-Sep-30 01:00N 44°06' E 039°03'0 0.0
2017-Sep-30 00:30N 44°06' E 039°03'0 0.0
2017-Sep-30 00:00N 44°06' E 039°03'0 0.0
2017-Sep-29 23:30N 44°06' E 039°03'0 0.0
2017-Sep-29 23:00N 44°06' E 039°03'0 0.0
2017-Sep-29 22:30N 44°06' E 039°03'0 0.0
2017-Sep-29 22:00N 44°06' E 039°03'0 0.0
2017-Sep-29 21:30N 44°06' E 039°03'0 0.0
2017-Sep-29 21:00N 44°06' E 039°03'0 0.0
2017-Sep-29 20:30N 44°06' E 039°03'0 0.0
2017-Sep-29 20:00N 44°06' E 039°03'0 0.0
2017-Sep-29 19:30N 44°06' E 039°03'0 0.0
2017-Sep-29 19:00N 44°06' E 039°03'0 0.0
2017-Sep-29 18:30N 44°06' E 039°03'0 0.0
2017-Sep-29 18:00N 44°06' E 039°03'0 0.0
2017-Sep-29 17:30N 44°06' E 039°03'0 0.0
2017-Sep-29 17:00N 44°06' E 039°03'0 0.0
2017-Sep-29 16:30N 44°06' E 039°03'0 0.0
2017-Sep-29 16:00N 44°06' E 039°03'1 2.0
2017-Sep-29 15:30N 44°05' E 039°04'0 0.6
2017-Sep-29 15:01N 44°05' E 039°04'0 0.6
2017-Sep-29 14:30N 44°05' E 039°04'0 0.9
2017-Sep-29 14:00N 44°05' E 039°04'1 1.2
2017-Sep-29 13:30N 44°06' E 039°03'0 0.0
2017-Sep-29 13:00N 44°06' E 039°03'0 0.0
2017-Sep-29 12:30N 44°06' E 039°03'0 0.0
2017-Sep-29 12:00N 44°06' E 039°03'0 0.0
2017-Sep-29 11:30N 44°06' E 039°03'0 0.0
2017-Sep-29 11:00N 44°06' E 039°03'0 0.0
2017-Sep-29 10:30N 44°06' E 039°03'0 0.0
2017-Sep-29 10:00N 44°06' E 039°03'0 0.0
2017-Sep-29 09:30N 44°06' E 039°03'1 2.0
2017-Sep-29 09:00N 44°05' E 039°04'1 2.0
2017-Sep-29 08:30N 44°06' E 039°03'0 0.0
2017-Sep-29 08:00N 44°06' E 039°03'0 0.0
2017-Sep-29 07:31N 44°06' E 039°03'1 2.0
2017-Sep-29 07:00N 44°05' E 039°04'0 0.0
2017-Sep-29 06:31N 44°05' E 039°04'1 2.0
2017-Sep-29 06:00N 44°06' E 039°03'0 0.0
2017-Sep-29 05:30N 44°06' E 039°03'0 0.0
2017-Sep-29 05:00N 44°06' E 039°03'0 0.0
2017-Sep-29 04:30N 44°06' E 039°03'0 0.0
2017-Sep-29 04:00N 44°06' E 039°03'0 0.0
2017-Sep-29 03:30N 44°06' E 039°03'0 0.0
2017-Sep-29 03:00N 44°06' E 039°03'0 0.0
2017-Sep-29 02:30N 44°06' E 039°03'0 0.0
2017-Sep-29 02:00N 44°06' E 039°03'0 0.0
2017-Sep-29 01:30N 44°06' E 039°03'0 0.0
2017-Sep-29 01:00N 44°06' E 039°03'0 0.0
2017-Sep-29 00:30N 44°06' E 039°03'0 0.0
2017-Sep-29 00:00N 44°06' E 039°03'0 0.0
2017-Sep-28 23:30N 44°06' E 039°03'0 0.0
2017-Sep-28 23:00N 44°06' E 039°03'0 0.0
2017-Sep-28 22:30N 44°06' E 039°03'0 0.0
2017-Sep-28 22:00N 44°06' E 039°03'0 0.0
2017-Sep-28 21:30N 44°06' E 039°03'0 0.0
2017-Sep-28 21:00N 44°06' E 039°03'0 0.0
2017-Sep-28 20:30N 44°06' E 039°03'0 0.0
2017-Sep-28 20:00N 44°06' E 039°03'0 0.0
2017-Sep-28 19:30N 44°06' E 039°03'0 0.0
2017-Sep-28 19:00N 44°06' E 039°03'0 0.0
2017-Sep-28 18:30N 44°06' E 039°03'0 0.0
2017-Sep-28 18:00N 44°06' E 039°03'0 0.0
2017-Sep-28 17:30N 44°06' E 039°03'0 0.0
2017-Sep-28 17:00N 44°06' E 039°03'0 0.0
2017-Sep-28 16:30N 44°06' E 039°03'0 0.0
2017-Sep-28 16:00N 44°06' E 039°03'0 0.0
2017-Sep-28 15:30N 44°06' E 039°03'0 0.0
2017-Sep-28 15:00N 44°06' E 039°03'0 0.0
2017-Sep-28 14:30N 44°06' E 039°03'0 0.0
2017-Sep-28 14:00N 44°06' E 039°03'0 0.0
2017-Sep-28 13:30N 44°06' E 039°03'0 0.0
2017-Sep-28 13:00N 44°06' E 039°03'0 0.0
2017-Sep-28 12:30N 44°06' E 039°03'0 0.0
2017-Sep-28 12:00N 44°06' E 039°03'0 0.0
2017-Sep-28 11:30N 44°06' E 039°03'0 0.1
2017-Sep-28 11:00N 44°06' E 039°03'0 0.1
2017-Sep-28 10:30N 44°06' E 039°03'0 0.0
2017-Sep-28 10:00N 44°06' E 039°03'0 0.0
2017-Sep-28 09:30N 44°06' E 039°03'0 0.0
2017-Sep-28 09:00N 44°06' E 039°03'0 0.0
2017-Sep-28 08:30N 44°06' E 039°03'0 0.0
2017-Sep-28 08:00N 44°06' E 039°03'0 0.0
2017-Sep-28 07:30N 44°06' E 039°03'0 0.0
2017-Sep-28 07:00N 44°06' E 039°03'0 0.0
2017-Sep-28 06:30N 44°06' E 039°03'0 0.0
2017-Sep-28 06:00N 44°06' E 039°03'0 0.0
2017-Sep-28 05:30N 44°06' E 039°03'0 0.0
2017-Sep-28 05:00N 44°06' E 039°03'0 0.0
2017-Sep-28 04:30N 44°06' E 039°03'0 0.0
2017-Sep-28 04:00N 44°06' E 039°03'0 0.0
2017-Sep-28 03:30N 44°06' E 039°03'0 0.0
2017-Sep-28 03:00N 44°06' E 039°03'0 0.0
2017-Sep-28 02:30N 44°06' E 039°03'0 0.0
2017-Sep-28 02:00N 44°06' E 039°03'0 0.0
2017-Sep-28 01:30N 44°06' E 039°03'0 0.0
2017-Sep-28 01:00N 44°06' E 039°03'0 0.0
2017-Sep-28 00:30N 44°06' E 039°03'0 0.0
2017-Sep-28 00:00N 44°06' E 039°03'0 0.0
2017-Sep-27 23:30N 44°06' E 039°03'0 0.0
2017-Sep-27 23:00N 44°06' E 039°03'0 0.0
2017-Sep-27 22:30N 44°06' E 039°03'0 0.0
2017-Sep-27 22:00N 44°06' E 039°03'0 0.0
2017-Sep-27 21:30N 44°06' E 039°03'0 0.0
2017-Sep-27 21:00N 44°06' E 039°03'0 0.0
2017-Sep-27 20:30N 44°06' E 039°03'0 0.0
2017-Sep-27 20:00N 44°06' E 039°03'0 0.0
2017-Sep-27 19:30N 44°06' E 039°03'0 0.0
2017-Sep-27 19:00N 44°06' E 039°03'0 0.0
2017-Sep-27 18:30N 44°06' E 039°03'0 0.0
2017-Sep-27 18:00N 44°06' E 039°03'0 0.0
2017-Sep-27 17:30N 44°06' E 039°03'0 0.0
2017-Sep-27 17:00N 44°06' E 039°03'0 0.0
2017-Sep-27 16:30N 44°06' E 039°03'0 0.0
2017-Sep-27 16:00N 44°06' E 039°03'0 0.0
2017-Sep-27 15:30N 44°06' E 039°03'0 0.0
2017-Sep-27 15:00N 44°06' E 039°03'0 0.0
2017-Sep-27 14:30N 44°06' E 039°03'0 0.0
2017-Sep-27 14:00N 44°06' E 039°03'0 0.0
2017-Sep-27 13:30N 44°06' E 039°03'0 0.0
2017-Sep-27 13:00N 44°06' E 039°03'0 0.0
2017-Sep-27 12:30N 44°06' E 039°03'0 0.0
2017-Sep-27 12:00N 44°06' E 039°03'0 0.0
2017-Sep-27 11:30N 44°06' E 039°03'0 0.0
2017-Sep-27 11:00N 44°06' E 039°03'0 0.0
2017-Sep-27 10:30N 44°06' E 039°03'0 0.0
2017-Sep-27 10:00N 44°06' E 039°03'0 0.0
2017-Sep-27 09:30N 44°06' E 039°03'0 0.0
2017-Sep-27 09:00N 44°06' E 039°03'0 0.0
2017-Sep-27 08:30N 44°06' E 039°03'0 0.0
2017-Sep-27 08:00N 44°06' E 039°03'0 0.0
2017-Sep-27 07:30N 44°06' E 039°03'0 0.0
2017-Sep-27 07:00N 44°06' E 039°03'0 0.0
2017-Sep-27 06:30N 44°06' E 039°03'0 0.0
2017-Sep-27 06:00N 44°06' E 039°03'0 0.0
2017-Sep-27 05:30N 44°06' E 039°03'0 0.0
2017-Sep-27 05:00N 44°06' E 039°03'0 0.0
2017-Sep-27 04:30N 44°06' E 039°03'0 0.0
2017-Sep-27 04:00N 44°06' E 039°03'0 0.0
2017-Sep-27 03:30N 44°06' E 039°03'0 0.0
2017-Sep-27 03:00N 44°06' E 039°03'0 0.0
2017-Sep-27 02:30N 44°06' E 039°03'0 0.0
2017-Sep-27 02:00N 44°06' E 039°03'0 0.0
2017-Sep-27 01:30N 44°06' E 039°03'0 0.0
2017-Sep-27 01:00N 44°06' E 039°03'0 0.0
2017-Sep-27 00:30N 44°06' E 039°03'0 0.0
2017-Sep-27 00:00N 44°06' E 039°03'0 0.0
2017-Sep-26 23:30N 44°06' E 039°03'0 0.0
2017-Sep-26 23:00N 44°06' E 039°03'0 0.0
2017-Sep-26 22:30N 44°06' E 039°03'0 0.0
2017-Sep-26 22:00N 44°06' E 039°03'0 0.0
2017-Sep-26 21:30N 44°06' E 039°03'0 0.0
2017-Sep-26 21:00N 44°06' E 039°03'0 0.0
2017-Sep-26 20:30N 44°06' E 039°03'0 0.0
2017-Sep-26 20:00N 44°06' E 039°03'0 0.0
2017-Sep-26 19:30N 44°06' E 039°03'0 0.0
2017-Sep-26 19:00N 44°06' E 039°03'0 0.0
2017-Sep-26 18:30N 44°06' E 039°03'0 0.0
2017-Sep-26 18:00N 44°06' E 039°03'0 0.0
2017-Sep-26 17:30N 44°06' E 039°03'0 0.0
2017-Sep-26 17:00N 44°06' E 039°03'0 0.0
2017-Sep-26 16:30N 44°06' E 039°03'0 0.0
2017-Sep-26 16:00N 44°06' E 039°03'0 0.0
2017-Sep-26 15:30N 44°06' E 039°03'0 0.0
2017-Sep-26 15:00N 44°06' E 039°03'0 0.0
2017-Sep-26 14:30N 44°06' E 039°03'0 0.0
2017-Sep-26 14:00N 44°06' E 039°03'0 0.0
2017-Sep-26 13:30N 44°06' E 039°03'0 0.0
2017-Sep-26 13:00N 44°06' E 039°03'0 0.0
2017-Sep-26 12:30N 44°06' E 039°03'0 0.0
2017-Sep-26 12:00N 44°06' E 039°03'0 0.0
2017-Sep-26 11:30N 44°06' E 039°03'0 0.0
2017-Sep-26 11:00N 44°06' E 039°03'0 0.0
2017-Sep-26 10:30N 44°06' E 039°03'0 0.0
2017-Sep-26 10:00N 44°06' E 039°03'0 0.0
2017-Sep-26 09:30N 44°06' E 039°03'0 0.0
2017-Sep-26 09:00N 44°06' E 039°03'0 0.0
2017-Sep-26 08:30N 44°06' E 039°03'0 0.0
2017-Sep-26 08:00N 44°06' E 039°03'0 0.0
2017-Sep-26 07:30N 44°06' E 039°03'0 0.0
2017-Sep-26 06:46N 44°06' E 039°03'0 0.0
2017-Sep-26 06:30N 44°06' E 039°03'0 0.0
2017-Sep-26 06:00N 44°06' E 039°03'0 0.0
2017-Sep-26 05:30N 44°06' E 039°03'0 0.0
2017-Sep-26 05:00N 44°06' E 039°03'0 0.0
2017-Sep-26 04:30N 44°06' E 039°03'0 0.0
2017-Sep-26 04:00N 44°06' E 039°03'0 0.0
2017-Sep-26 03:30N 44°06' E 039°03'0 0.0
2017-Sep-26 03:00N 44°06' E 039°03'0 0.0
2017-Sep-26 02:30N 44°06' E 039°03'0 0.0
2017-Sep-26 02:00N 44°06' E 039°03'0 0.0
2017-Sep-26 01:30N 44°06' E 039°03'0 0.0
2017-Sep-26 01:00N 44°06' E 039°03'0 0.0
2017-Sep-26 00:30N 44°06' E 039°03'0 0.0
2017-Sep-26 00:00N 44°06' E 039°03'0 0.0
2017-Sep-25 23:30N 44°06' E 039°03'0 0.0
2017-Sep-25 23:00N 44°06' E 039°03'0 0.0
2017-Sep-25 22:30N 44°06' E 039°03'0 0.0
2017-Sep-25 22:00N 44°06' E 039°03'0 0.0
2017-Sep-25 21:30N 44°06' E 039°03'0 0.0
2017-Sep-25 21:00N 44°06' E 039°03'0 0.0
2017-Sep-25 20:30N 44°06' E 039°03'0 0.0
2017-Sep-25 20:00N 44°06' E 039°03'0 0.0
2017-Sep-25 19:30N 44°06' E 039°03'0 0.0
2017-Sep-25 19:00N 44°06' E 039°03'0 0.0
2017-Sep-25 18:30N 44°06' E 039°03'0 0.0
2017-Sep-25 18:00N 44°06' E 039°03'0 0.0
2017-Sep-25 17:30N 44°06' E 039°03'0 0.0
2017-Sep-25 17:00N 44°06' E 039°03'0 0.0
2017-Sep-25 16:30N 44°06' E 039°03'0 0.0
2017-Sep-25 16:00N 44°06' E 039°03'0 0.0
2017-Sep-25 15:30N 44°06' E 039°03'0 0.0
2017-Sep-25 15:00N 44°06' E 039°03'0 0.0
2017-Sep-25 14:30N 44°06' E 039°03'0 0.0
2017-Sep-25 14:00N 44°06' E 039°03'0 0.0
2017-Sep-25 13:30N 44°06' E 039°03'0 0.0
2017-Sep-25 13:00N 44°06' E 039°03'1 2.0
2017-Sep-25 12:31N 44°05' E 039°04'1 1.2
2017-Sep-25 12:01N 44°05' E 039°03'0 0.3
2017-Sep-25 11:30N 44°05' E 039°04'1 2.4
2017-Sep-25 11:00N 44°06' E 039°03'0 0.0
2017-Sep-25 10:30N 44°06' E 039°03'1 2.0
2017-Sep-25 10:01N 44°05' E 039°04'0 0.1
2017-Sep-25 09:31N 44°05' E 039°04'1 1.2
2017-Sep-25 09:00N 44°05' E 039°04'1 1.4
2017-Sep-25 08:30N 44°05' E 039°04'1 1.1
2017-Sep-25 08:00N 44°06' E 039°03'0 0.0
2017-Sep-25 07:30N 44°06' E 039°03'0 0.0
2017-Sep-25 07:00N 44°06' E 039°03'0 0.0
2017-Sep-25 06:30N 44°06' E 039°03'0 0.0
2017-Sep-25 06:00N 44°06' E 039°03'0 0.0
2017-Sep-25 05:30N 44°06' E 039°03'0 0.0
2017-Sep-25 05:00N 44°06' E 039°03'0 0.0
2017-Sep-25 04:30N 44°06' E 039°03'0 0.0
2017-Sep-25 04:00N 44°06' E 039°03'0 0.0
2017-Sep-25 03:30N 44°06' E 039°03'0 0.0
2017-Sep-25 03:00N 44°06' E 039°03'0 0.0
2017-Sep-25 02:30N 44°06' E 039°03'0 0.0
2017-Sep-25 02:00N 44°06' E 039°03'0 0.0
2017-Sep-25 01:30N 44°06' E 039°03'0 0.0
2017-Sep-25 01:00N 44°06' E 039°03'0 0.0
2017-Sep-25 00:30N 44°06' E 039°03'0 0.0
2017-Sep-25 00:00N 44°06' E 039°03'0 0.0
2017-Sep-24 23:30N 44°06' E 039°03'0 0.0
2017-Sep-24 23:00N 44°06' E 039°03'0 0.0
2017-Sep-24 22:30N 44°06' E 039°03'0 0.0
2017-Sep-24 22:00N 44°06' E 039°03'0 0.0
2017-Sep-24 21:30N 44°06' E 039°03'0 0.0
2017-Sep-24 21:00N 44°06' E 039°03'0 0.0
2017-Sep-24 20:30N 44°06' E 039°03'0 0.0
2017-Sep-24 20:00N 44°06' E 039°03'0 0.0
2017-Sep-24 19:30N 44°06' E 039°03'0 0.0
2017-Sep-24 19:00N 44°06' E 039°03'0 0.0
2017-Sep-24 18:30N 44°06' E 039°03'0 0.0
2017-Sep-24 18:00N 44°06' E 039°03'0 0.0
2017-Sep-24 17:30N 44°06' E 039°03'0 0.0
2017-Sep-24 17:00N 44°06' E 039°03'0 0.0
2017-Sep-24 16:30N 44°06' E 039°03'0 0.0
2017-Sep-24 16:00N 44°06' E 039°03'0 0.0
2017-Sep-24 15:30N 44°06' E 039°03'0 0.0
2017-Sep-24 15:00N 44°06' E 039°03'0 0.0
2017-Sep-24 14:30N 44°06' E 039°03'0 0.0
2017-Sep-24 14:00N 44°06' E 039°03'0 0.0
2017-Sep-24 13:30N 44°06' E 039°03'0 0.0
2017-Sep-24 13:00N 44°06' E 039°03'0 0.0
2017-Sep-24 12:30N 44°06' E 039°03'0 0.0
2017-Sep-24 12:00N 44°06' E 039°03'0 0.0
2017-Sep-24 11:30N 44°06' E 039°03'0 0.0
2017-Sep-24 11:00N 44°06' E 039°03'0 0.0
2017-Sep-24 10:30N 44°06' E 039°03'0 0.0
2017-Sep-24 10:00N 44°06' E 039°03'0 0.0
2017-Sep-24 09:30N 44°06' E 039°03'0 0.0
2017-Sep-24 09:00N 44°06' E 039°03'0 0.0
2017-Sep-24 08:30N 44°06' E 039°03'0 0.0
2017-Sep-24 08:00N 44°06' E 039°03'0 0.0
2017-Sep-24 07:30N 44°06' E 039°03'0 0.0
2017-Sep-24 07:00N 44°06' E 039°03'0 0.0
2017-Sep-24 06:30N 44°06' E 039°03'0 0.0
2017-Sep-24 06:00N 44°06' E 039°03'0 0.0
2017-Sep-24 05:30N 44°06' E 039°03'0 0.0
2017-Sep-24 05:00N 44°06' E 039°03'0 0.0
2017-Sep-24 04:30N 44°06' E 039°03'0 0.0
2017-Sep-24 04:00N 44°06' E 039°03'0 0.0
2017-Sep-24 03:30N 44°06' E 039°03'0 0.0
2017-Sep-24 03:00N 44°06' E 039°03'0 0.0
2017-Sep-24 02:30N 44°06' E 039°03'0 0.0
2017-Sep-24 02:00N 44°06' E 039°03'0 0.0
2017-Sep-24 01:30N 44°06' E 039°03'0 0.0
2017-Sep-24 01:00N 44°06' E 039°03'0 0.0
2017-Sep-24 00:30N 44°06' E 039°03'0 0.0
2017-Sep-24 00:00N 44°06' E 039°03'0 0.0
2017-Sep-23 23:30N 44°06' E 039°03'0 0.0
2017-Sep-23 23:00N 44°06' E 039°03'0 0.0
2017-Sep-23 22:30N 44°06' E 039°03'0 0.0
2017-Sep-23 22:00N 44°06' E 039°03'0 0.0
2017-Sep-23 21:30N 44°06' E 039°03'0 0.0
2017-Sep-23 21:00N 44°06' E 039°03'0 0.0
2017-Sep-23 20:30N 44°06' E 039°03'0 0.0
2017-Sep-23 20:00N 44°06' E 039°03'  
Track history (hours):
 
Tides and Currents Weather Stations Pressure Air Temp Water Temp Dewpoint Dewpoint Depression Visibility Wind Speed Wind Dir Waves Ship Positions

Sd Seahorse

Last reported at 2017-Oct-03 17:31 UTC. Time now 2017-Oct-22 15:30 UTC.
Position N 44°37' E 037°29'.
Warning: this ship's position is 18 days out of date.

; draft 5.5 m.

Type: Tug. MMSI: 273380330.

Date/timePositionNaut miles runAvg speedWind from/ knotsBaromVisibWave heightAir tempDewpointWater temp
2017-Oct-03 17:31N 44°37' E 037°29'3 9.1
2017-Oct-03 17:11N 44°35' E 037°33'2 9.2
2017-Oct-03 17:01N 44°35' E 037°35'4 8.9
2017-Oct-03 16:31N 44°36' E 037°41'4 8.3
2017-Oct-03 16:01N 44°38' E 037°46'3 6.9
2017-Oct-03 15:31N 44°41' E 037°49'4 7.4
2017-Oct-03 15:01N 44°44' E 037°47'0 0.0
2017-Oct-03 14:01N 44°44' E 037°47'0 0.0
2017-Oct-03 13:31N 44°44' E 037°47'0 0.0
2017-Oct-03 13:01N 44°44' E 037°47'0 0.0
2017-Oct-03 12:31N 44°44' E 037°47'0 0.0
2017-Oct-03 12:01N 44°44' E 037°47'0 0.0
2017-Oct-03 11:31N 44°44' E 037°47'0 0.0
2017-Oct-03 11:01N 44°44' E 037°47'0 0.0
2017-Oct-03 10:31N 44°44' E 037°47'0 0.0
2017-Oct-03 10:01N 44°44' E 037°47'0 0.0
2017-Oct-03 09:31N 44°44' E 037°47'0 0.0
2017-Oct-03 09:01N 44°44' E 037°47'0 0.0
2017-Oct-03 08:30N 44°44' E 037°47'0 0.0
2017-Oct-03 08:01N 44°44' E 037°47'0 0.0
2017-Oct-03 07:31N 44°44' E 037°47'0 0.0
2017-Oct-03 07:01N 44°44' E 037°47'0 0.0
2017-Oct-03 06:30N 44°44' E 037°47'0 0.0
2017-Oct-03 06:01N 44°44' E 037°47'0 0.0
2017-Oct-03 05:31N 44°44' E 037°47'0 0.0
2017-Oct-03 05:01N 44°44' E 037°47'0 0.0
2017-Oct-03 04:31N 44°44' E 037°47'0 0.0
2017-Oct-03 04:01N 44°44' E 037°47'0 0.0
2017-Oct-03 03:31N 44°44' E 037°47'0 0.0
2017-Oct-03 03:00N 44°44' E 037°47'0 0.0
2017-Oct-03 02:31N 44°44' E 037°47'0 0.0
2017-Oct-03 02:01N 44°44' E 037°47'0 0.0
2017-Oct-03 01:31N 44°44' E 037°47'0 0.0
2017-Oct-03 01:01N 44°44' E 037°47'0 0.0
2017-Oct-03 00:31N 44°44' E 037°47'0 0.0
2017-Oct-03 00:00N 44°44' E 037°47'0 0.0
2017-Oct-02 23:31N 44°44' E 037°47'0 0.0
2017-Oct-02 23:01N 44°44' E 037°47'0 0.0
2017-Oct-02 22:31N 44°44' E 037°47'0 0.0
2017-Oct-02 22:01N 44°44' E 037°47'0 0.0
2017-Oct-02 21:31N 44°44' E 037°47'0 0.0
2017-Oct-02 21:00N 44°44' E 037°47'0 0.0
2017-Oct-02 20:31N 44°44' E 037°47'0 0.0
2017-Oct-02 20:01N 44°44' E 037°47'0 0.0
2017-Oct-02 19:31N 44°44' E 037°47'0 0.0
2017-Oct-02 19:01N 44°44' E 037°47'0 0.0
2017-Oct-02 18:31N 44°44' E 037°47'0 0.0
2017-Oct-02 18:01N 44°44' E 037°47'0 0.0
2017-Oct-02 17:31N 44°44' E 037°47'0 0.0
2017-Oct-02 17:01N 44°44' E 037°47'0 0.0
2017-Oct-02 16:31N 44°44' E 037°47'0 0.0
2017-Oct-02 16:01N 44°44' E 037°47'0 0.0
2017-Oct-02 15:31N 44°44' E 037°47'0 0.0
2017-Oct-02 15:01N 44°44' E 037°47'0 0.0
2017-Oct-02 14:31N 44°44' E 037°47'0 0.0
2017-Oct-02 14:01N 44°44' E 037°47'0 0.0
2017-Oct-02 13:30N 44°44' E 037°47'0 0.0
2017-Oct-02 13:00N 44°44' E 037°47'0 0.0
2017-Oct-02 12:31N 44°44' E 037°47'0 0.0
2017-Oct-02 12:01N 44°44' E 037°47'0 0.0
2017-Oct-02 11:30N 44°44' E 037°47'0 0.0
2017-Oct-02 11:01N 44°44' E 037°47'0 0.0
2017-Oct-02 10:31N 44°44' E 037°47'0 0.0
2017-Oct-02 10:01N 44°44' E 037°47'0 0.0
2017-Oct-02 09:31N 44°44' E 037°47'0 0.0
2017-Oct-02 09:01N 44°44' E 037°47'0 0.0
2017-Oct-02 08:30N 44°44' E 037°47'0 0.0
2017-Oct-02 08:01N 44°44' E 037°47'0 0.0
2017-Oct-02 07:30N 44°44' E 037°47'0 0.0
2017-Oct-02 07:01N 44°44' E 037°47'0 0.0
2017-Oct-02 06:31N 44°44' E 037°47'0 0.0
2017-Oct-02 06:00N 44°44' E 037°47'0 0.0
2017-Oct-02 05:31N 44°44' E 037°47'0 0.0
2017-Oct-02 05:00N 44°44' E 037°47'0 0.0
2017-Oct-02 04:31N 44°44' E 037°47'0 0.0
2017-Oct-02 04:01N 44°44' E 037°47'0 0.0
2017-Oct-02 03:31N 44°44' E 037°47'0 0.0
2017-Oct-02 03:01N 44°44' E 037°47'0 0.0
2017-Oct-02 02:30N 44°44' E 037°47'0 0.0
2017-Oct-02 02:01N 44°44' E 037°47'0 0.0
2017-Oct-02 01:31N 44°44' E 037°47'0 0.0
2017-Oct-02 01:01N 44°44' E 037°47'0 0.0
2017-Oct-02 00:31N 44°44' E 037°47'0 0.0
2017-Oct-02 00:01N 44°44' E 037°47'0 0.0
2017-Oct-01 23:31N 44°44' E 037°47'0 0.0
2017-Oct-01 23:01N 44°44' E 037°47'0 0.0
2017-Oct-01 22:30N 44°44' E 037°47'0 0.0
2017-Oct-01 22:01N 44°44' E 037°47'0 0.0
2017-Oct-01 21:31N 44°44' E 037°47'0 0.0
2017-Oct-01 21:01N 44°44' E 037°47'0 0.0
2017-Oct-01 20:31N 44°44' E 037°47'0 0.0
2017-Oct-01 20:00N 44°44' E 037°47'1 1.6
2017-Oct-01 19:31N 44°44' E 037°48'0 0.0
2017-Oct-01 19:01N 44°44' E 037°48'1 1.7
2017-Oct-01 18:31N 44°43' E 037°48'1 2.4
2017-Oct-01 18:01N 44°44' E 037°47'0 0.0
2017-Oct-01 17:31N 44°44' E 037°47'0 0.0
2017-Oct-01 17:01N 44°44' E 037°47'0 0.0
2017-Oct-01 16:31N 44°44' E 037°47'0 0.0
2017-Oct-01 16:01N 44°44' E 037°47'1 1.9
2017-Oct-01 15:31N 44°43' E 037°48'4 8.8
2017-Oct-01 15:01N 44°39' E 037°51'5 9.2
2017-Oct-01 14:31N 44°36' E 037°56'4 8.8
2017-Oct-01 14:01N 44°32' E 037°58'4 7.8
2017-Oct-01 13:30N 44°36' E 038°01'0 0.0
2017-Oct-01 13:00N 44°36' E 038°01'2316.9
2017-Oct-01 11:37N 44°19' E 038°24'210.0
2017-Oct-01 11:24N 44°19' E 038°27'410.1
2017-Oct-01 11:00N 44°17' E 038°32'510.1
2017-Oct-01 10:30N 44°14' E 038°38'510.0
2017-Oct-01 10:00N 44°11' E 038°43'5 9.9
2017-Oct-01 09:30N 44°09' E 038°49'5 9.7
2017-Oct-01 09:00N 44°07' E 038°55'5 9.5
2017-Oct-01 08:30N 44°05' E 039°02'1 2.4
2017-Oct-01 08:00N 44°06' E 039°03'0 0.0
2017-Oct-01 07:30N 44°06' E 039°03'0 0.0
2017-Oct-01 07:00N 44°06' E 039°03'0 0.0
2017-Oct-01 06:30N 44°06' E 039°03'0 0.0
2017-Oct-01 06:00N 44°06' E 039°03'0 0.0
2017-Oct-01 05:30N 44°06' E 039°03'0 0.0
2017-Oct-01 05:00N 44°06' E 039°03'0 0.0
2017-Oct-01 04:30N 44°06' E 039°03'0 0.0
2017-Oct-01 04:00N 44°06' E 039°03'0 0.0
2017-Oct-01 03:30N 44°06' E 039°03'0 0.0
2017-Oct-01 03:00N 44°06' E 039°03'0 0.0
2017-Sep-30 02:00N 44°06' E 039°03'0 0.0
2017-Sep-30 01:30N 44°06' E 039°03'0 0.0
2017-Sep-30 01:00N 44°06' E 039°03'0 0.0
2017-Sep-30 00:30N 44°06' E 039°03'0 0.0
2017-Sep-30 00:00N 44°06' E 039°03'0 0.0
2017-Sep-29 23:30N 44°06' E 039°03'0 0.0
2017-Sep-29 23:00N 44°06' E 039°03'0 0.0
2017-Sep-29 22:30N 44°06' E 039°03'0 0.0
2017-Sep-29 22:00N 44°06' E 039°03'0 0.0
2017-Sep-29 21:30N 44°06' E 039°03'0 0.0
2017-Sep-29 21:00N 44°06' E 039°03'0 0.0
2017-Sep-29 20:30N 44°06' E 039°03'0 0.0
2017-Sep-29 20:00N 44°06' E 039°03'0 0.0
2017-Sep-29 19:30N 44°06' E 039°03'0 0.0
2017-Sep-29 19:00N 44°06' E 039°03'0 0.0
2017-Sep-29 18:30N 44°06' E 039°03'0 0.0
2017-Sep-29 18:00N 44°06' E 039°03'0 0.0
2017-Sep-29 17:30N 44°06' E 039°03'0 0.0
2017-Sep-29 17:00N 44°06' E 039°03'0 0.0
2017-Sep-29 16:30N 44°06' E 039°03'0 0.0
2017-Sep-29 16:00N 44°06' E 039°03'1 2.0
2017-Sep-29 15:30N 44°05' E 039°04'0 0.6
2017-Sep-29 15:01N 44°05' E 039°04'0 0.6
2017-Sep-29 14:30N 44°05' E 039°04'0 0.9
2017-Sep-29 14:00N 44°05' E 039°04'1 1.2
2017-Sep-29 13:30N 44°06' E 039°03'0 0.0
2017-Sep-29 13:00N 44°06' E 039°03'0 0.0
2017-Sep-29 12:30N 44°06' E 039°03'0 0.0
2017-Sep-29 12:00N 44°06' E 039°03'0 0.0
2017-Sep-29 11:30N 44°06' E 039°03'0 0.0
2017-Sep-29 11:00N 44°06' E 039°03'0 0.0
2017-Sep-29 10:30N 44°06' E 039°03'0 0.0
2017-Sep-29 10:00N 44°06' E 039°03'0 0.0
2017-Sep-29 09:30N 44°06' E 039°03'1 2.0
2017-Sep-29 09:00N 44°05' E 039°04'1 2.0
2017-Sep-29 08:30N 44°06' E 039°03'0 0.0
2017-Sep-29 08:00N 44°06' E 039°03'0 0.0
2017-Sep-29 07:31N 44°06' E 039°03'1 2.0
2017-Sep-29 07:00N 44°05' E 039°04'0 0.0
2017-Sep-29 06:31N 44°05' E 039°04'1 2.0
2017-Sep-29 06:00N 44°06' E 039°03'0 0.0
2017-Sep-29 05:30N 44°06' E 039°03'0 0.0
2017-Sep-29 05:00N 44°06' E 039°03'0 0.0
2017-Sep-29 04:30N 44°06' E 039°03'0 0.0
2017-Sep-29 04:00N 44°06' E 039°03'0 0.0
2017-Sep-29 03:30N 44°06' E 039°03'0 0.0
2017-Sep-29 03:00N 44°06' E 039°03'0 0.0
2017-Sep-29 02:30N 44°06' E 039°03'0 0.0
2017-Sep-29 02:00N 44°06' E 039°03'0 0.0
2017-Sep-29 01:30N 44°06' E 039°03'0 0.0
2017-Sep-29 01:00N 44°06' E 039°03'0 0.0
2017-Sep-29 00:30N 44°06' E 039°03'0 0.0
2017-Sep-29 00:00N 44°06' E 039°03'0 0.0
2017-Sep-28 23:30N 44°06' E 039°03'0 0.0
2017-Sep-28 23:00N 44°06' E 039°03'0 0.0
2017-Sep-28 22:30N 44°06' E 039°03'0 0.0
2017-Sep-28 22:00N 44°06' E 039°03'0 0.0
2017-Sep-28 21:30N 44°06' E 039°03'0 0.0
2017-Sep-28 21:00N 44°06' E 039°03'0 0.0
2017-Sep-28 20:30N 44°06' E 039°03'0 0.0
2017-Sep-28 20:00N 44°06' E 039°03'0 0.0
2017-Sep-28 19:30N 44°06' E 039°03'0 0.0
2017-Sep-28 19:00N 44°06' E 039°03'0 0.0
2017-Sep-28 18:30N 44°06' E 039°03'0 0.0
2017-Sep-28 18:00N 44°06' E 039°03'0 0.0
2017-Sep-28 17:30N 44°06' E 039°03'0 0.0
2017-Sep-28 17:00N 44°06' E 039°03'0 0.0
2017-Sep-28 16:30N 44°06' E 039°03'0 0.0
2017-Sep-28 16:00N 44°06' E 039°03'0 0.0
2017-Sep-28 15:30N 44°06' E 039°03'0 0.0
2017-Sep-28 15:00N 44°06' E 039°03'0 0.0
2017-Sep-28 14:30N 44°06' E 039°03'0 0.0
2017-Sep-28 14:00N 44°06' E 039°03'0 0.0
2017-Sep-28 13:30N 44°06' E 039°03'0 0.0
2017-Sep-28 13:00N 44°06' E 039°03'0 0.0
2017-Sep-28 12:30N 44°06' E 039°03'0 0.0
2017-Sep-28 12:00N 44°06' E 039°03'0 0.0
2017-Sep-28 11:30N 44°06' E 039°03'0 0.1
2017-Sep-28 11:00N 44°06' E 039°03'0 0.1
2017-Sep-28 10:30N 44°06' E 039°03'0 0.0
2017-Sep-28 10:00N 44°06' E 039°03'0 0.0
2017-Sep-28 09:30N 44°06' E 039°03'0 0.0
2017-Sep-28 09:00N 44°06' E 039°03'0 0.0
2017-Sep-28 08:30N 44°06' E 039°03'0 0.0
2017-Sep-28 08:00N 44°06' E 039°03'0 0.0
2017-Sep-28 07:30N 44°06' E 039°03'0 0.0
2017-Sep-28 07:00N 44°06' E 039°03'0 0.0
2017-Sep-28 06:30N 44°06' E 039°03'0 0.0
2017-Sep-28 06:00N 44°06' E 039°03'0 0.0
2017-Sep-28 05:30N 44°06' E 039°03'0 0.0
2017-Sep-28 05:00N 44°06' E 039°03'0 0.0
2017-Sep-28 04:30N 44°06' E 039°03'0 0.0
2017-Sep-28 04:00N 44°06' E 039°03'0 0.0
2017-Sep-28 03:30N 44°06' E 039°03'0 0.0
2017-Sep-28 03:00N 44°06' E 039°03'0 0.0
2017-Sep-28 02:30N 44°06' E 039°03'0 0.0
2017-Sep-28 02:00N 44°06' E 039°03'0 0.0
2017-Sep-28 01:30N 44°06' E 039°03'0 0.0
2017-Sep-28 01:00N 44°06' E 039°03'0 0.0
2017-Sep-28 00:30N 44°06' E 039°03'0 0.0
2017-Sep-28 00:00N 44°06' E 039°03'0 0.0
2017-Sep-27 23:30N 44°06' E 039°03'0 0.0
2017-Sep-27 23:00N 44°06' E 039°03'0 0.0
2017-Sep-27 22:30N 44°06' E 039°03'0 0.0
2017-Sep-27 22:00N 44°06' E 039°03'0 0.0
2017-Sep-27 21:30N 44°06' E 039°03'0 0.0
2017-Sep-27 21:00N 44°06' E 039°03'0 0.0
2017-Sep-27 20:30N 44°06' E 039°03'0 0.0
2017-Sep-27 20:00N 44°06' E 039°03'0 0.0
2017-Sep-27 19:30N 44°06' E 039°03'0 0.0
2017-Sep-27 19:00N 44°06' E 039°03'0 0.0
2017-Sep-27 18:30N 44°06' E 039°03'0 0.0
2017-Sep-27 18:00N 44°06' E 039°03'0 0.0
2017-Sep-27 17:30N 44°06' E 039°03'0 0.0
2017-Sep-27 17:00N 44°06' E 039°03'0 0.0
2017-Sep-27 16:30N 44°06' E 039°03'0 0.0
2017-Sep-27 16:00N 44°06' E 039°03'0 0.0
2017-Sep-27 15:30N 44°06' E 039°03'0 0.0
2017-Sep-27 15:00N 44°06' E 039°03'0 0.0
2017-Sep-27 14:30N 44°06' E 039°03'0 0.0
2017-Sep-27 14:00N 44°06' E 039°03'0 0.0
2017-Sep-27 13:30N 44°06' E 039°03'0 0.0
2017-Sep-27 13:00N 44°06' E 039°03'0 0.0
2017-Sep-27 12:30N 44°06' E 039°03'0 0.0
2017-Sep-27 12:00N 44°06' E 039°03'0 0.0
2017-Sep-27 11:30N 44°06' E 039°03'0 0.0
2017-Sep-27 11:00N 44°06' E 039°03'0 0.0
2017-Sep-27 10:30N 44°06' E 039°03'0 0.0
2017-Sep-27 10:00N 44°06' E 039°03'0 0.0
2017-Sep-27 09:30N 44°06' E 039°03'0 0.0
2017-Sep-27 09:00N 44°06' E 039°03'0 0.0
2017-Sep-27 08:30N 44°06' E 039°03'0 0.0
2017-Sep-27 08:00N 44°06' E 039°03'0 0.0
2017-Sep-27 07:30N 44°06' E 039°03'0 0.0
2017-Sep-27 07:00N 44°06' E 039°03'0 0.0
2017-Sep-27 06:30N 44°06' E 039°03'0 0.0
2017-Sep-27 06:00N 44°06' E 039°03'0 0.0
2017-Sep-27 05:30N 44°06' E 039°03'0 0.0
2017-Sep-27 05:00N 44°06' E 039°03'0 0.0
2017-Sep-27 04:30N 44°06' E 039°03'0 0.0
2017-Sep-27 04:00N 44°06' E 039°03'0 0.0
2017-Sep-27 03:30N 44°06' E 039°03'0 0.0
2017-Sep-27 03:00N 44°06' E 039°03'0 0.0
2017-Sep-27 02:30N 44°06' E 039°03'0 0.0
2017-Sep-27 02:00N 44°06' E 039°03'0 0.0
2017-Sep-27 01:30N 44°06' E 039°03'0 0.0
2017-Sep-27 01:00N 44°06' E 039°03'0 0.0
2017-Sep-27 00:30N 44°06' E 039°03'0 0.0
2017-Sep-27 00:00N 44°06' E 039°03'0 0.0
2017-Sep-26 23:30N 44°06' E 039°03'0 0.0
2017-Sep-26 23:00N 44°06' E 039°03'0 0.0
2017-Sep-26 22:30N 44°06' E 039°03'0 0.0
2017-Sep-26 22:00N 44°06' E 039°03'0 0.0
2017-Sep-26 21:30N 44°06' E 039°03'0 0.0
2017-Sep-26 21:00N 44°06' E 039°03'0 0.0
2017-Sep-26 20:30N 44°06' E 039°03'0 0.0
2017-Sep-26 20:00N 44°06' E 039°03'0 0.0
2017-Sep-26 19:30N 44°06' E 039°03'0 0.0
2017-Sep-26 19:00N 44°06' E 039°03'0 0.0
2017-Sep-26 18:30N 44°06' E 039°03'0 0.0
2017-Sep-26 18:00N 44°06' E 039°03'0 0.0
2017-Sep-26 17:30N 44°06' E 039°03'0 0.0
2017-Sep-26 17:00N 44°06' E 039°03'0 0.0
2017-Sep-26 16:30N 44°06' E 039°03'0 0.0
2017-Sep-26 16:00N 44°06' E 039°03'0 0.0
2017-Sep-26 15:30N 44°06' E 039°03'0 0.0
2017-Sep-26 15:00N 44°06' E 039°03'0 0.0
2017-Sep-26 14:30N 44°06' E 039°03'0 0.0
2017-Sep-26 14:00N 44°06' E 039°03'0 0.0
2017-Sep-26 13:30N 44°06' E 039°03'0 0.0
2017-Sep-26 13:00N 44°06' E 039°03'0 0.0
2017-Sep-26 12:30N 44°06' E 039°03'0 0.0
2017-Sep-26 12:00N 44°06' E 039°03'0 0.0
2017-Sep-26 11:30N 44°06' E 039°03'0 0.0
2017-Sep-26 11:00N 44°06' E 039°03'0 0.0
2017-Sep-26 10:30N 44°06' E 039°03'0 0.0
2017-Sep-26 10:00N 44°06' E 039°03'0 0.0
2017-Sep-26 09:30N 44°06' E 039°03'0 0.0
2017-Sep-26 09:00N 44°06' E 039°03'0 0.0
2017-Sep-26 08:30N 44°06' E 039°03'0 0.0
2017-Sep-26 08:00N 44°06' E 039°03'0 0.0
2017-Sep-26 07:30N 44°06' E 039°03'0 0.0
2017-Sep-26 06:46N 44°06' E 039°03'0 0.0
2017-Sep-26 06:30N 44°06' E 039°03'0 0.0
2017-Sep-26 06:00N 44°06' E 039°03'0 0.0
2017-Sep-26 05:30N 44°06' E 039°03'0 0.0
2017-Sep-26 05:00N 44°06' E 039°03'0 0.0
2017-Sep-26 04:30N 44°06' E 039°03'0 0.0
2017-Sep-26 04:00N 44°06' E 039°03'0 0.0
2017-Sep-26 03:30N 44°06' E 039°03'0 0.0
2017-Sep-26 03:00N 44°06' E 039°03'0 0.0
2017-Sep-26 02:30N 44°06' E 039°03'0 0.0
2017-Sep-26 02:00N 44°06' E 039°03'0 0.0
2017-Sep-26 01:30N 44°06' E 039°03'0 0.0
2017-Sep-26 01:00N 44°06' E 039°03'0 0.0
2017-Sep-26 00:30N 44°06' E 039°03'0 0.0
2017-Sep-26 00:00N 44°06' E 039°03'0 0.0
2017-Sep-25 23:30N 44°06' E 039°03'0 0.0
2017-Sep-25 23:00N 44°06' E 039°03'0 0.0
2017-Sep-25 22:30N 44°06' E 039°03'0 0.0
2017-Sep-25 22:00N 44°06' E 039°03'0 0.0
2017-Sep-25 21:30N 44°06' E 039°03'0 0.0
2017-Sep-25 21:00N 44°06' E 039°03'0 0.0
2017-Sep-25 20:30N 44°06' E 039°03'0 0.0
2017-Sep-25 20:00N 44°06' E 039°03'0 0.0
2017-Sep-25 19:30N 44°06' E 039°03'0 0.0
2017-Sep-25 19:00N 44°06' E 039°03'0 0.0
2017-Sep-25 18:30N 44°06' E 039°03'0 0.0
2017-Sep-25 18:00N 44°06' E 039°03'0 0.0
2017-Sep-25 17:30N 44°06' E 039°03'0 0.0
2017-Sep-25 17:00N 44°06' E 039°03'0 0.0
2017-Sep-25 16:30N 44°06' E 039°03'0 0.0
2017-Sep-25 16:00N 44°06' E 039°03'0 0.0
2017-Sep-25 15:30N 44°06' E 039°03'0 0.0
2017-Sep-25 15:00N 44°06' E 039°03'0 0.0
2017-Sep-25 14:30N 44°06' E 039°03'0 0.0
2017-Sep-25 14:00N 44°06' E 039°03'0 0.0
2017-Sep-25 13:30N 44°06' E 039°03'0 0.0
2017-Sep-25 13:00N 44°06' E 039°03'1 2.0
2017-Sep-25 12:31N 44°05' E 039°04'1 1.2
2017-Sep-25 12:01N 44°05' E 039°03'0 0.3
2017-Sep-25 11:30N 44°05' E 039°04'1 2.4
2017-Sep-25 11:00N 44°06' E 039°03'0 0.0
2017-Sep-25 10:30N 44°06' E 039°03'1 2.0
2017-Sep-25 10:01N 44°05' E 039°04'0 0.1
2017-Sep-25 09:31N 44°05' E 039°04'1 1.2
2017-Sep-25 09:00N 44°05' E 039°04'1 1.4
2017-Sep-25 08:30N 44°05' E 039°04'1 1.1
2017-Sep-25 08:00N 44°06' E 039°03'0 0.0
2017-Sep-25 07:30N 44°06' E 039°03'0 0.0
2017-Sep-25 07:00N 44°06' E 039°03'0 0.0
2017-Sep-25 06:30N 44°06' E 039°03'0 0.0
2017-Sep-25 06:00N 44°06' E 039°03'0 0.0
2017-Sep-25 05:30N 44°06' E 039°03'0 0.0
2017-Sep-25 05:00N 44°06' E 039°03'0 0.0
2017-Sep-25 04:30N 44°06' E 039°03'0 0.0
2017-Sep-25 04:00N 44°06' E 039°03'0 0.0
2017-Sep-25 03:30N 44°06' E 039°03'0 0.0
2017-Sep-25 03:00N 44°06' E 039°03'0 0.0
2017-Sep-25 02:30N 44°06' E 039°03'0 0.0
2017-Sep-25 02:00N 44°06' E 039°03'0 0.0
2017-Sep-25 01:30N 44°06' E 039°03'0 0.0
2017-Sep-25 01:00N 44°06' E 039°03'0 0.0
2017-Sep-25 00:30N 44°06' E 039°03'0 0.0
2017-Sep-25 00:00N 44°06' E 039°03'0 0.0
2017-Sep-24 23:30N 44°06' E 039°03'0 0.0
2017-Sep-24 23:00N 44°06' E 039°03'0 0.0
2017-Sep-24 22:30N 44°06' E 039°03'0 0.0
2017-Sep-24 22:00N 44°06' E 039°03'0 0.0
2017-Sep-24 21:30N 44°06' E 039°03'0 0.0
2017-Sep-24 21:00N 44°06' E 039°03'0 0.0
2017-Sep-24 20:30N 44°06' E 039°03'0 0.0
2017-Sep-24 20:00N 44°06' E 039°03'0 0.0
2017-Sep-24 19:30N 44°06' E 039°03'0 0.0
2017-Sep-24 19:00N 44°06' E 039°03'0 0.0
2017-Sep-24 18:30N 44°06' E 039°03'0 0.0
2017-Sep-24 18:00N 44°06' E 039°03'0 0.0
2017-Sep-24 17:30N 44°06' E 039°03'0 0.0
2017-Sep-24 17:00N 44°06' E 039°03'0 0.0
2017-Sep-24 16:30N 44°06' E 039°03'0 0.0
2017-Sep-24 16:00N 44°06' E 039°03'0 0.0
2017-Sep-24 15:30N 44°06' E 039°03'0 0.0
2017-Sep-24 15:00N 44°06' E 039°03'0 0.0
2017-Sep-24 14:30N 44°06' E 039°03'0 0.0
2017-Sep-24 14:00N 44°06' E 039°03'0 0.0
2017-Sep-24 13:30N 44°06' E 039°03'0 0.0
2017-Sep-24 13:00N 44°06' E 039°03'0 0.0
2017-Sep-24 12:30N 44°06' E 039°03'0 0.0
2017-Sep-24 12:00N 44°06' E 039°03'0 0.0
2017-Sep-24 11:30N 44°06' E 039°03'0 0.0
2017-Sep-24 11:00N 44°06' E 039°03'0 0.0
2017-Sep-24 10:30N 44°06' E 039°03'0 0.0
2017-Sep-24 10:00N 44°06' E 039°03'0 0.0
2017-Sep-24 09:30N 44°06' E 039°03'0 0.0
2017-Sep-24 09:00N 44°06' E 039°03'0 0.0
2017-Sep-24 08:30N 44°06' E 039°03'0 0.0
2017-Sep-24 08:00N 44°06' E 039°03'0 0.0
2017-Sep-24 07:30N 44°06' E 039°03'0 0.0
2017-Sep-24 07:00N 44°06' E 039°03'0 0.0
2017-Sep-24 06:30N 44°06' E 039°03'0 0.0
2017-Sep-24 06:00N 44°06' E 039°03'0 0.0
2017-Sep-24 05:30N 44°06' E 039°03'0 0.0
2017-Sep-24 05:00N 44°06' E 039°03'0 0.0
2017-Sep-24 04:30N 44°06' E 039°03'0 0.0
2017-Sep-24 04:00N 44°06' E 039°03'0 0.0
2017-Sep-24 03:30N 44°06' E 039°03'0 0.0
2017-Sep-24 03:00N 44°06' E 039°03'0 0.0
2017-Sep-24 02:30N 44°06' E 039°03'0 0.0
2017-Sep-24 02:00N 44°06' E 039°03'0 0.0
2017-Sep-24 01:30N 44°06' E 039°03'0 0.0
2017-Sep-24 01:00N 44°06' E 039°03'0 0.0
2017-Sep-24 00:30N 44°06' E 039°03'0 0.0
2017-Sep-24 00:00N 44°06' E 039°03'0 0.0
2017-Sep-23 23:30N 44°06' E 039°03'0 0.0
2017-Sep-23 23:00N 44°06' E 039°03'0 0.0
2017-Sep-23 22:30N 44°06' E 039°03'0 0.0
2017-Sep-23 22:00N 44°06' E 039°03'0 0.0
2017-Sep-23 21:30N 44°06' E 039°03'0 0.0
2017-Sep-23 21:00N 44°06' E 039°03'0 0.0
2017-Sep-23 20:30N 44°06' E 039°03'0 0.0
2017-Sep-23 20:00N 44°06' E 039°03'  

Dump ship's entire track history